| time (UTC) | temp F | wind direction | speed knots | gust knots | rain 1hr in | rain 24hr in | rain mn in | humidity % | barometer mb |
| 20260904032650 | 55 | 21 | 0.0 | 1.7 | 0.00 | 0.00 | 0.00 | 99 | |
| 20260904032248 | 55 | 21 | 0.0 | 3.5 | 0.00 | 0.00 | 0.00 | 99 | |
| 20260904031848 | 55 | 21 | 0.0 | 1.7 | 0.00 | 0.00 | 0.00 | 99 | |
| 20260904031448 | 55 | 21 | 0.0 | 0.9 | 0.00 | 0.00 | 0.00 | 99 | |
| 20260904031048 | 55 | 21 | 0.0 | 1.7 | 0.00 | 0.00 | 0.00 | 99 | |
| 20260904030648 | 55 | 21 | 0.0 | 0.0 | 0.00 | 0.00 | 0.00 | 99 | |
| 20260904030246 | 55 | 21 | 0.9 | 2.6 | 0.00 | 0.00 | 0.00 | 99 | |
| 20260904025846 | 55 | 21 | 1.7 | 3.5 | 0.00 | 0.00 | 0.00 | 99 | |
| 20260904025446 | 55 | 21 | 0.0 | 0.9 | 0.00 | 0.00 | 0.00 | 99 | |
| 20260904025117 | 55 | 21 | 0.9 | 1.7 | 0.00 | 0.00 | 0.00 | 99 | |
| 20260904025043 | 55 | 21 | 0.9 | 1.7 | 0.00 | 0.00 | 0.00 | 99 | |
| 20260904024643 | 55 | 21 | 1.7 | 6.1 | 0.00 | 0.00 | 0.00 | 99 | |
| 20260904024231 | 55 | 21 | 0.0 | 1.7 | 0.00 | 0.00 | 0.00 | 99 | |
| 20260904023831 | 55 | 21 | 1.7 | 3.5 | 0.00 | 0.00 | 0.00 | 99 | |
| 20260904023431 | 55 | 21 | 0.0 | 0.9 | 0.00 | 0.00 | 0.00 | 99 | |
| 20260904023031 | 55 | 21 | 0.9 | 1.7 | 0.00 | 0.00 | 0.00 | 99 | |
| 20260904022631 | 55 | 21 | 0.0 | 0.9 | 0.00 | 0.00 | 0.00 | 99 | |
| 20260904022229 | 55 | 21 | 0.9 | 2.6 | 0.00 | 0.00 | 0.00 | 99 | |
| 20260904021829 | 55 | 21 | 0.0 | 1.7 | 0.00 | 0.00 | 0.00 | 99 | |
| 20260904021429 | 55 | 21 | 0.0 | 1.7 | 0.00 | 0.00 | 0.00 | 99 | |
| 20260904021029 | 55 | 21 | 0.9 | 3.5 | 0.00 | 0.00 | 0.00 | 99 | |
| 20260904020629 | 55 | 21 | 0.9 | 4.3 | 0.00 | 0.00 | 0.00 | 99 | |
| 20260904020227 | 55 | 21 | 0.9 | 2.6 | 0.00 | 0.00 | 0.00 | 99 | |
| 20260904015824 | 55 | 21 | 0.0 | 2.6 | 0.00 | 0.00 | 0.00 | 99 | |
| 20260904015424 | 55 | 21 | 0.9 | 2.6 | 0.00 | 0.00 | 0.00 | 99 | |
| 20260904015024 | 56 | 21 | 0.9 | 2.6 | 0.00 | 0.00 | 0.00 | 99 | |
| 20260904014624 | 56 | 21 | 0.9 | 2.6 | 0.00 | 0.00 | 0.00 | 99 | |
| 20260904014221 | 56 | 21 | 1.7 | 4.3 | 0.00 | 0.00 | 0.00 | 99 | |
| 20260904013821 | 56 | 21 | 0.9 | 3.5 | 0.00 | 0.00 | 0.00 | 99 | |
| 20260904013422 | 56 | 21 | 0.9 | 2.6 | 0.00 | 0.00 | 0.00 | 99 | |
| 20260904013022 | 56 | 21 | 0.0 | 2.6 | 0.00 | 0.00 | 0.00 | 99 | |
| 20260904012622 | 56 | 21 | 0.9 | 1.7 | 0.00 | 0.00 | 0.00 | 99 | |
| 20260904012219 | 56 | 21 | 1.7 | 3.5 | 0.00 | 0.00 | 0.00 | 99 | |
| 20260904011819 | 56 | 21 | 0.9 | 2.6 | 0.00 | 0.00 | 0.00 | 99 | |
| 20260904011419 | 56 | 21 | 0.9 | 4.3 | 0.00 | 0.00 | 0.00 | 99 | |
| 20260904011017 | 56 | 21 | 0.9 | 3.5 | 0.00 | 0.00 | 0.00 | 99 | |
| 20260904010617 | 56 | 21 | 0.9 | 3.5 | 0.00 | 0.00 | 0.00 | 99 | |
| 20260904010215 | 56 | 21 | 0.9 | 1.7 | 0.00 | 0.00 | 0.00 | 99 | |
| 20260904005815 | 56 | 21 | 1.7 | 5.2 | 0.00 | 0.00 | 0.00 | 99 | |
| 20260904005415 | 56 | 21 | 0.9 | 1.7 | 0.00 | 0.00 | 0.00 | 99 | |
| 20260904005015 | 56 | 21 | 0.9 | 2.6 | 0.00 | 0.00 | 0.00 | 99 | |
| 20260904004615 | 57 | 21 | 0.9 | 3.5 | 0.00 | 0.00 | 0.00 | 99 | |
| 20260904004213 | 57 | 21 | 0.9 | 1.7 | 0.00 | 0.00 | 0.00 | 99 | |
| 20260904003813 | 57 | 21 | 1.7 | 4.3 | 0.00 | 0.00 | 0.00 | 99 | |
| 20260904003413 | 57 | 21 | 0.9 | 3.5 | 0.00 | 0.00 | 0.00 | 99 | |
| 20260904003013 | 57 | 21 | 0.9 | 3.5 | 0.00 | 0.00 | 0.00 | 98 | |
| 20260904002613 | 57 | 21 | 0.9 | 2.6 | 0.00 | 0.00 | 0.00 | 99 | |
| 20260904002211 | 57 | 21 | 0.9 | 2.6 | 0.00 | 0.00 | 0.00 | 98 | |
| 20260904001809 | 57 | 21 | 0.9 | 4.3 | 0.00 | 0.00 | 0.00 | 99 | |
| 20260904001409 | 57 | 21 | 1.7 | 4.3 | 0.00 | 0.00 | 0.00 | 98 | |
| 20260904000959 | 57 | 21 | 0.9 | 2.6 | 0.00 | 0.00 | 0.00 | 99 | |
| 20260904000559 | 56 | 21 | 1.7 | 3.5 | 0.00 | 0.00 | 0.00 | 98 | |
| 20260904000157 | 56 | 21 | 0.0 | 2.6 | 0.00 | 0.00 | 0.00 | 99 | |
| 20260903235757 | 56 | 21 | 1.7 | 4.3 | 0.00 | 0.00 | 0.00 | 99 | |
| 20260903235357 | 56 | 21 | 0.9 | 2.6 | 0.00 | 0.00 | 0.00 | 99 | |
| 20260903234957 | 56 | 21 | 0.9 | 2.6 | 0.00 | 0.00 | 0.00 | 99 | |
| 20260903234557 | 56 | 21 | 0.9 | 1.7 | 0.00 | 0.00 | 0.00 | 99 | |
| 20260903234155 | 56 | 21 | 0.9 | 2.6 | 0.00 | 0.00 | 0.00 | 99 | |
| 20260903233355 | 56 | 21 | 0.9 | 4.3 | 0.00 | 0.00 | 0.00 | 99 | |
| 20260903232952 | 56 | 21 | 1.7 | 4.3 | 0.00 | 0.00 | 0.00 | 99 | |
| 20260903232552 | 56 | 21 | 0.0 | 1.7 | 0.00 | 0.00 | 0.00 | 99 | |
| 20260903232150 | 56 | 21 | 0.9 | 2.6 | 0.00 | 0.00 | 0.00 | 99 | |
| 20260903231750 | 56 | 21 | 0.0 | 1.7 | 0.00 | 0.00 | 0.00 | 99 | |
| 20260903231352 | 56 | 21 | 0.9 | 1.7 | 0.00 | 0.00 | 0.00 | 99 | |
| 20260903230951 | 56 | 21 | 0.9 | 3.5 | 0.00 | 0.00 | 0.00 | 99 | |
| 20260903230551 | 56 | 21 | 0.9 | 1.7 | 0.00 | 0.00 | 0.00 | 99 | |
| 20260903230147 | 56 | 21 | 0.0 | 0.0 | 0.00 | 0.00 | 0.00 | 100 | |
| 20260903225747 | 56 | 21 | 0.0 | 1.7 | 0.00 | 0.00 | 0.00 | 100 | |
| 20260903225347 | 56 | 21 | 0.0 | 1.7 | 0.00 | 0.00 | 0.00 | 100 | |
| 20260903224947 | 56 | 21 | 0.9 | 3.5 | 0.00 | 0.00 | 0.00 | 100 | |
| 20260903224547 | 56 | 21 | 0.9 | 2.6 | 0.00 | 0.00 | 0.00 | 100 | |
| 20260903224414 | 56 | 21 | 0.9 | 2.6 | 0.00 | 0.00 | 0.00 | 100 | |
| 20260903224145 | 56 | 21 | 0.9 | 3.5 | 0.00 | 0.00 | 0.00 | 100 | |
| 20260903223742 | 56 | 21 | 0.9 | 2.6 | 0.00 | 0.00 | 0.00 | 100 | |
| 20260903223342 | 56 | 21 | 0.9 | 3.5 | 0.00 | 0.00 | 0.00 | 100 | |
| 20260903222942 | 56 | 21 | 0.0 | 0.9 | 0.00 | 0.00 | 0.00 | 100 | |
| 20260903222542 | 56 | 21 | 0.0 | 1.7 | 0.00 | 0.00 | 0.00 | 100 | |
| 20260903222217 | 55 | 21 | 1.7 | 3.5 | 0.00 | 0.00 | 0.00 | 100 | |
| 20260903222140 | 55 | 21 | 1.7 | 3.5 | 0.00 | 0.00 | 0.00 | 100 | |
| 20260903221740 | 55 | 21 | 1.7 | 3.5 | 0.00 | 0.00 | 0.00 | 100 | |
| 20260903221340 | 55 | 21 | 0.9 | 1.7 | 0.00 | 0.00 | 0.00 | 100 | |
| 20260903220939 | 55 | 21 | 0.0 | 0.9 | 0.00 | 0.00 | 0.00 | 100 | |
| 20260903220539 | 55 | 21 | 0.0 | 1.7 | 0.00 | 0.00 | 0.00 | 100 | |
| 20260903220404 | 55 | 21 | 0.9 | 2.6 | 0.00 | 0.00 | 0.00 | 100 | |
| 20260903220137 | 55 | 21 | 0.9 | 2.6 | 0.00 | 0.00 | 0.00 | 100 | |
| 20260903215839 | 55 | 21 | 0.9 | 2.6 | 0.00 | 0.00 | 0.00 | 100 | |
| 20260903215737 | 55 | 21 | 0.9 | 2.6 | 0.00 | 0.00 | 0.00 | 100 | |
| 20260903215602 | 54 | 21 | 0.9 | 2.6 | 0.00 | 0.00 | 0.00 | 99 | |
| 20260903215337 | 55 | 19 | 0.9 | 2.6 | 0.00 | 0.00 | 0.00 | 100 | |
| 20260903215126 | 55 | 21 | 0.9 | 2.6 | 0.00 | 0.00 | 0.00 | 99 | |
| 20260903214726 | 54 | 21 | 0.9 | 2.6 | 0.00 | 0.00 | 0.00 | 99 | |
| 20260903214326 | 55 | 21 | 0.0 | 0.0 | 0.00 | 0.00 | 0.00 | 99 | |
| 20260903213926 | 55 | 21 | 0.0 | 0.9 | 0.00 | 0.00 | 0.00 | 99 | |
| 20260903213526 | 55 | 21 | 0.0 | 0.9 | 0.00 | 0.00 | 0.00 | 99 | |
| 20260903213124 | 55 | 21 | 0.9 | 1.7 | 0.00 | 0.00 | 0.00 | 99 | |
| 20260903212724 | 55 | 21 | 0.0 | 1.7 | 0.00 | 0.00 | 0.00 | 99 | |
| 20260903212324 | 55 | 21 | 0.0 | 0.9 | 0.00 | 0.00 | 0.00 | 99 | |
| 20260903211924 | 55 | 21 | 0.0 | 1.7 | 0.00 | 0.00 | 0.00 | 99 | |
| 20260903211524 | 55 | 21 | 0.0 | 1.7 | 0.00 | 0.00 | 0.00 | 99 | |
| 20260903211122 | 55 | 21 | 0.9 | 1.7 | 0.00 | 0.00 | 0.00 | 99 | |
| 20260903210719 | 55 | 21 | 0.0 | 1.7 | 0.00 | 0.00 | 0.00 | 99 | |
| 20260903210320 | 55 | 21 | 0.9 | 3.5 | 0.00 | 0.00 | 0.00 | 99 | |
| 20260903205919 | 55 | 21 | 1.7 | 4.3 | 0.00 | 0.00 | 0.00 | 99 | |
| 20260903205520 | 55 | 21 | 0.9 | 3.5 | 0.00 | 0.00 | 0.00 | 99 | |
| 20260903205117 | 55 | 21 | 0.0 | 1.7 | 0.00 | 0.00 | 0.00 | 99 | |
| 20260903204717 | 55 | 21 | 0.0 | 2.6 | 0.00 | 0.00 | 0.00 | 99 | |
| 20260903204317 | 55 | 21 | 0.0 | 0.0 | 0.00 | 0.00 | 0.00 | 99 | |
| 20260903203917 | 55 | 21 | 0.0 | 0.9 | 0.00 | 0.00 | 0.00 | 99 | |
| 20260903203517 | 55 | 21 | 0.0 | 0.9 | 0.00 | 0.00 | 0.00 | 99 | |
| 20260903203115 | 55 | 21 | 0.0 | 0.9 | 0.00 | 0.00 | 0.00 | 99 | |
| 20260903202715 | 55 | 21 | 0.0 | 0.9 | 0.00 | 0.00 | 0.00 | 99 | |
| 20260903202315 | 55 | 21 | 0.0 | 0.0 | 0.00 | 0.00 | 0.00 | 99 | |
| 20260903201912 | 55 | 21 | 0.0 | 0.9 | 0.00 | 0.00 | 0.00 | 99 | |
| 20260903201512 | 55 | 21 | 0.0 | 0.0 | 0.00 | 0.00 | 0.00 | 99 | |
| 20260903201110 | 55 | 21 | 0.0 | 1.7 | 0.00 | 0.00 | 0.00 | 99 | |
| 20260903200710 | 55 | 21 | 0.0 | 0.9 | 0.00 | 0.00 | 0.00 | 99 | |
| 20260903200310 | 55 | 21 | 0.0 | 0.0 | 0.00 | 0.00 | 0.00 | 99 | |
| 20260903200020 | 55 | 21 | 0.0 | 0.0 | 0.00 | 0.00 | 0.00 | 99 | |
| 20260903195910 | 55 | 21 | 0.0 | 0.0 | 0.00 | 0.00 | 0.00 | 99 | |
| 20260903195511 | 55 | 21 | 0.0 | 1.7 | 0.00 | 0.00 | 0.00 | 99 | |
| 20260903195108 | 55 | 21 | 0.0 | 0.9 | 0.00 | 0.00 | 0.00 | 99 | |
| 20260903194708 | 55 | 21 | 0.0 | 0.0 | 0.00 | 0.00 | 0.00 | 99 | |
| 20260903194308 | 55 | 21 | 0.0 | 1.7 | 0.00 | 0.00 | 0.00 | 99 | |
| 20260903193908 | 55 | 21 | 0.0 | 0.9 | 0.00 | 0.00 | 0.00 | 99 | |
| 20260903193509 | 55 | 21 | 0.0 | 1.7 | 0.00 | 0.00 | 0.00 | 99 | |
| 20260903193106 | 55 | 21 | 0.0 | 0.0 | 0.00 | 0.00 | 0.00 | 99 | |
| 20260903192704 | 55 | 21 | 0.0 | 0.0 | 0.00 | 0.00 | 0.00 | 99 | |
| 20260903192306 | 55 | 21 | 0.0 | 0.0 | 0.00 | 0.00 | 0.00 | 99 | |
| 20260903191854 | 55 | 21 | 0.9 | 2.6 | 0.00 | 0.00 | 0.00 | 99 | |
| 20260903191454 | 55 | 21 | 0.0 | 1.7 | 0.00 | 0.00 | 0.00 | 99 | |
| 20260903191052 | 55 | 21 | 0.0 | 0.0 | 0.00 | 0.00 | 0.00 | 99 | |
| 20260903190652 | 55 | 21 | 0.0 | 0.9 | 0.00 | 0.00 | 0.00 | 99 | |
| 20260903190252 | 55 | 21 | 0.0 | 0.0 | 0.00 | 0.00 | 0.00 | 99 | |
| 20260903185852 | 55 | 21 | 0.0 | 0.9 | 0.00 | 0.00 | 0.00 | 99 | |
| 20260903185452 | 55 | 21 | 0.0 | 0.9 | 0.00 | 0.00 | 0.00 | 99 | |
| 20260903185323 | 55 | 21 | 0.0 | 0.0 | 0.00 | 0.00 | 0.00 | 99 | |
| 20260903185050 | 55 | 21 | 0.0 | 0.0 | 0.00 | 0.00 | 0.00 | 99 | |
| 20260903184650 | 55 | 21 | 0.0 | 0.0 | 0.00 | 0.00 | 0.00 | 99 | |
| 20260903184250 | 55 | 21 | 0.0 | 0.9 | 0.00 | 0.00 | 0.00 | 99 | |
| 20260903183447 | 55 | 21 | 0.0 | 1.7 | 0.00 | 0.00 | 0.00 | 99 | |
| 20260903183045 | 55 | 21 | 0.0 | 2.6 | 0.00 | 0.00 | 0.00 | 99 | |
| 20260903182645 | 55 | 21 | 0.0 | 0.0 | 0.00 | 0.00 | 0.00 | 99 | |
| 20260903182245 | 55 | 21 | 0.0 | 0.0 | 0.00 | 0.00 | 0.00 | 99 | |
| 20260903181845 | 55 | 21 | 0.0 | 0.9 | 0.00 | 0.00 | 0.00 | 99 | |
| 20260903181445 | 55 | 21 | 0.0 | 0.9 | 0.00 | 0.00 | 0.00 | 99 | |
| 20260903181043 | 55 | 21 | 0.0 | 1.7 | 0.00 | 0.00 | 0.00 | 99 | |
| 20260903180643 | 55 | 21 | 0.0 | 0.0 | 0.00 | 0.00 | 0.00 | 99 | |
| 20260903180243 | 55 | 21 | 0.0 | 0.0 | 0.00 | 0.00 | 0.00 | 99 | |
| 20260903175843 | 55 | 21 | 0.0 | 0.9 | 0.00 | 0.00 | 0.00 | 99 | |
| 20260903175443 | 55 | 21 | 0.0 | 0.0 | 0.00 | 0.00 | 0.00 | 99 | |
| 20260903175041 | 55 | 21 | 0.0 | 0.0 | 0.00 | 0.00 | 0.00 | 99 | |
| 20260903174638 | 56 | 21 | 0.0 | 0.0 | 0.00 | 0.00 | 0.00 | 99 | |
| 20260903174238 | 56 | 21 | 0.0 | 0.0 | 0.00 | 0.00 | 0.00 | 99 | |
| 20260903173838 | 56 | 21 | 0.0 | 0.0 | 0.00 | 0.00 | 0.00 | 99 | |
| 20260903173438 | 56 | 21 | 0.0 | 0.0 | 0.00 | 0.00 | 0.00 | 99 | |
| 20260903173036 | 56 | 21 | 0.0 | 0.9 | 0.00 | 0.00 | 0.00 | 99 | |
| 20260903172635 | 56 | 21 | 0.0 | 0.9 | 0.00 | 0.00 | 0.00 | 99 | |
| 20260903172236 | 57 | 21 | 0.0 | 1.7 | 0.00 | 0.00 | 0.00 | 99 | |
| 20260903171835 | 57 | 21 | 0.0 | 0.9 | 0.00 | 0.00 | 0.00 | 99 | |
| 20260903171033 | 57 | 21 | 0.0 | 0.0 | 0.00 | 0.00 | 0.00 | 100 | |
| 20260903170633 | 57 | 21 | 0.0 | 0.0 | 0.00 | 0.00 | 0.00 | 100 | |
| 20260903170233 | 57 | 19 | 0.0 | 0.0 | 0.00 | 0.00 | 0.00 | 100 | |
| 20260903170021 | 57 | 21 | 0.0 | 0.0 | 0.00 | 0.00 | 0.00 | 99 | |
| 20260903165811 | 57 | 21 | 0.0 | 0.0 | 0.00 | 0.00 | 0.00 | 99 | |
| 20260903165621 | 57 | 21 | 0.0 | 0.0 | 0.00 | 0.00 | 0.00 | 99 | |
| 20260903165221 | 58 | 21 | 0.0 | 0.9 | 0.00 | 0.00 | 0.00 | 99 | |
| 20260903164821 | 58 | 21 | 0.0 | 0.0 | 0.00 | 0.00 | 0.00 | 99 | |
| 20260903164421 | 58 | 21 | 0.0 | 0.9 | 0.00 | 0.00 | 0.00 | 99 | |
| 20260903164019 | 58 | 21 | 0.0 | 0.0 | 0.00 | 0.00 | 0.00 | 99 | |
| 20260903163619 | 58 | 21 | 0.0 | 0.0 | 0.00 | 0.00 | 0.00 | 99 | |
| 20260903163219 | 59 | 21 | 0.0 | 0.0 | 0.00 | 0.00 | 0.00 | 98 | |
| 20260903162819 | 59 | 21 | 0.0 | 0.0 | 0.00 | 0.00 | 0.00 | 98 | |
| 20260903162419 | 59 | 21 | 0.0 | 0.0 | 0.00 | 0.00 | 0.00 | 97 | |
| 20260903162017 | 59 | 21 | 0.0 | 0.0 | 0.00 | 0.00 | 0.00 | 97 | |
| 20260903161728 | 59 | 21 | 0.0 | 0.0 | 0.00 | 0.00 | 0.00 | 97 | |
| 20260903161614 | 59 | 21 | 0.0 | 0.0 | 0.00 | 0.00 | 0.00 | 97 | |
| 20260903161214 | 59 | 21 | 0.0 | 0.0 | 0.00 | 0.00 | 0.00 | 97 | |
| 20260903160814 | 59 | 21 | 0.0 | 0.0 | 0.00 | 0.00 | 0.00 | 96 | |
| 20260903160415 | 60 | 21 | 0.0 | 0.0 | 0.00 | 0.00 | 0.00 | 97 | |
| 20260903160012 | 60 | 21 | 0.0 | 0.0 | 0.00 | 0.00 | 0.00 | 96 | |
| 20260903155612 | 60 | 21 | 0.0 | 0.0 | 0.00 | 0.00 | 0.00 | 96 | |
| 20260903155212 | 60 | 21 | 0.0 | 0.0 | 0.00 | 0.00 | 0.00 | 95 | |
| 20260903154812 | 60 | 21 | 0.0 | 0.0 | 0.00 | 0.00 | 0.00 | 95 | |
| 20260903154412 | 59 | 21 | 0.0 | 0.9 | 0.00 | 0.00 | 0.00 | 94 | |
| 20260903154010 | 59 | 21 | 0.0 | 0.9 | 0.00 | 0.00 | 0.00 | 94 | |
| 20260903153610 | 60 | 21 | 0.0 | 0.9 | 0.00 | 0.00 | 0.00 | 94 | |
| 20260903153210 | 60 | 21 | 0.0 | 0.9 | 0.00 | 0.00 | 0.00 | 93 | |
| 20260903152407 | 60 | 21 | 0.0 | 1.7 | 0.00 | 0.00 | 0.00 | 91 | |
| 20260903152005 | 61 | 21 | 0.0 | 1.7 | 0.00 | 0.00 | 0.00 | 92 | |
| 20260903151605 | 61 | 21 | 0.0 | 0.0 | 0.00 | 0.00 | 0.00 | 91 | |
| 20260903151205 | 61 | 21 | 0.0 | 1.7 | 0.00 | 0.00 | 0.00 | 92 | |
| 20260903150805 | 61 | 21 | 0.9 | 2.6 | 0.00 | 0.00 | 0.00 | 92 | |
| 20260903150405 | 61 | 21 | 0.9 | 1.7 | 0.00 | 0.00 | 0.00 | 91 | |
| 20260903150003 | 61 | 21 | 0.9 | 2.6 | 0.00 | 0.00 | 0.00 | 91 | |
| 20260903145603 | 61 | 21 | 1.7 | 3.5 | 0.00 | 0.00 | 0.00 | 90 | |
| 20260903145203 | 61 | 21 | 0.9 | 2.6 | 0.00 | 0.00 | 0.00 | 92 | |
| 20260903144803 | 61 | 21 | 0.0 | 2.6 | 0.00 | 0.00 | 0.00 | 92 | |
| 20260903144402 | 61 | 21 | 0.9 | 1.7 | 0.00 | 0.00 | 0.00 | 93 | |
| 20260903144000 | 61 | 21 | 0.9 | 3.5 | 0.00 | 0.00 | 0.00 | 94 | |
| 20260903143557 | 61 | 21 | 0.9 | 1.7 | 0.00 | 0.00 | 0.00 | 94 | |
| 20260903143157 | 61 | 21 | 0.9 | 2.6 | 0.00 | 0.00 | 0.00 | 93 | |
| 20260903142747 | 61 | 21 | 1.7 | 4.3 | 0.00 | 0.00 | 0.00 | 94 | |
| 20260903142348 | 61 | 21 | 0.9 | 2.6 | 0.00 | 0.00 | 0.00 | 93 | |
| 20260903141945 | 61 | 21 | 1.7 | 3.5 | 0.00 | 0.00 | 0.00 | 91 | |
| 20260903141545 | 61 | 21 | 0.9 | 2.6 | 0.00 | 0.00 | 0.00 | 93 | |
| 20260903141145 | 61 | 21 | 0.9 | 2.6 | 0.00 | 0.00 | 0.00 | 93 | |
| 20260903140745 | 61 | 21 | 1.7 | 2.6 | 0.00 | 0.00 | 0.00 | 92 | |
| 20260903140345 | 61 | 21 | 0.9 | 2.6 | 0.00 | 0.00 | 0.00 | 92 | |
| 20260903135943 | 61 | 21 | 1.7 | 3.5 | 0.00 | 0.00 | 0.00 | 92 | |
| 20260903135543 | 61 | 21 | 1.7 | 4.3 | 0.00 | 0.00 | 0.00 | 93 | |
| 20260903135143 | 61 | 21 | 0.9 | 1.7 | 0.00 | 0.00 | 0.00 | 92 | |
| 20260903134740 | 61 | 21 | 1.7 | 3.5 | 0.00 | 0.00 | 0.00 | 92 | |
| 20260903134340 | 61 | 21 | 1.7 | 4.3 | 0.00 | 0.00 | 0.00 | 91 | |
| 20260903133938 | 61 | 21 | 1.7 | 3.5 | 0.00 | 0.00 | 0.00 | 91 | |
| 20260903133538 | 62 | 21 | 0.9 | 3.5 | 0.00 | 0.00 | 0.00 | 90 | |
| 20260903133138 | 62 | 21 | 1.7 | 3.5 | 0.00 | 0.00 | 0.00 | 92 | |
| 20260903132738 | 62 | 21 | 1.7 | 4.3 | 0.00 | 0.00 | 0.00 | 92 | |
| 20260903132338 | 62 | 21 | 1.7 | 3.5 | 0.00 | 0.00 | 0.00 | 91 | |
| 20260903131936 | 62 | 21 | 1.7 | 3.5 | 0.00 | 0.00 | 0.00 | 89 | |
| 20260903131536 | 62 | 21 | 0.9 | 2.6 | 0.00 | 0.00 | 0.00 | 91 | |
| 20260903131136 | 62 | 21 | 0.9 | 2.6 | 0.00 | 0.00 | 0.00 | 91 | |
| 20260903130736 | 62 | 21 | 0.9 | 1.7 | 0.00 | 0.00 | 0.00 | 92 | |
| 20260903130337 | 61 | 21 | 0.9 | 2.6 | 0.00 | 0.00 | 0.00 | 91 | |
| 20260903125934 | 60 | 21 | 0.9 | 1.7 | 0.00 | 0.00 | 0.00 | 92 | |
| 20260903125531 | 60 | 21 | 0.9 | 3.5 | 0.00 | 0.00 | 0.00 | 92 | |
| 20260903125131 | 60 | 21 | 0.9 | 2.6 | 0.00 | 0.00 | 0.00 | 91 | |
| 20260903124731 | 61 | 21 | 0.0 | 1.7 | 0.00 | 0.00 | 0.00 | 91 | |
| 20260903124331 | 62 | 21 | 0.0 | 1.7 | 0.00 | 0.00 | 0.00 | 88 | |
| 20260903123929 | 63 | 21 | 0.9 | 1.7 | 0.00 | 0.00 | 0.00 | 88 | |
| 20260903123529 | 63 | 21 | 0.0 | 0.9 | 0.00 | 0.00 | 0.00 | 89 | |
| 20260903123129 | 64 | 21 | 0.9 | 2.6 | 0.00 | 0.00 | 0.00 | 88 | |
| 20260903122729 | 64 | 21 | 0.0 | 2.6 | 0.00 | 0.00 | 0.00 | 89 | |
| 20260903122329 | 64 | 21 | 0.9 | 3.5 | 0.00 | 0.00 | 0.00 | 88 | |
| 20260903121927 | 64 | 21 | 0.9 | 1.7 | 0.00 | 0.00 | 0.00 | 91 | |
| 20260903121527 | 64 | 21 | 0.0 | 1.7 | 0.00 | 0.00 | 0.00 | 88 | |
| 20260903121127 | 63 | 21 | 0.0 | 0.9 | 0.00 | 0.00 | 0.00 | 89 | |
| 20260903120725 | 62 | 21 | 0.9 | 1.7 | 0.00 | 0.00 | 0.00 | 91 | |
| 20260903120325 | 62 | 21 | 0.0 | 1.7 | 0.00 | 0.00 | 0.00 | 90 | |
| 20260903115913 | 62 | 21 | 1.7 | 3.5 | 0.00 | 0.00 | 0.00 | 87 | |
| 20260903115513 | 63 | 21 | 0.9 | 3.5 | 0.00 | 0.00 | 0.00 | 87 | |
| 20260903115113 | 63 | 21 | 0.0 | 0.9 | 0.00 | 0.00 | 0.00 | 87 | |
| 20260903114713 | 64 | 21 | 0.0 | 1.7 | 0.00 | 0.00 | 0.00 | 86 | |
| 20260903114313 | 64 | 21 | 0.0 | 0.9 | 0.00 | 0.00 | 0.00 | 87 | |
| 20260903113911 | 63 | 21 | 0.0 | 1.7 | 0.00 | 0.00 | 0.00 | 88 | |
| 20260903113511 | 63 | 21 | 0.0 | 0.0 | 0.00 | 0.00 | 0.00 | 87 | |
| 20260903113111 | 63 | 21 | 0.0 | 1.7 | 0.00 | 0.00 | 0.00 | 87 | |
| 20260903112711 | 64 | 21 | 0.0 | 0.9 | 0.00 | 0.00 | 0.00 | 86 | |
| 20260903112311 | 65 | 21 | 0.9 | 3.5 | 0.00 | 0.00 | 0.00 | 84 | |
| 20260903111909 | 65 | 21 | 0.9 | 2.6 | 0.00 | 0.00 | 0.00 | 86 | |
| 20260903111506 | 65 | 21 | 0.9 | 3.5 | 0.00 | 0.00 | 0.00 | 86 | |
| 20260903111106 | 64 | 21 | 0.9 | 2.6 | 0.00 | 0.00 | 0.00 | 88 | |
| 20260903110707 | 63 | 21 | 0.9 | 2.6 | 0.00 | 0.00 | 0.00 | 90 | |
| 20260903110307 | 62 | 21 | 0.0 | 0.0 | 0.00 | 0.00 | 0.00 | 90 | |
| 20260903105904 | 62 | 21 | 0.0 | 0.0 | 0.00 | 0.00 | 0.00 | 94 | |
| 20260903105504 | 61 | 21 | 0.0 | 0.0 | 0.00 | 0.00 | 0.00 | 94 | |
| 20260903105105 | 61 | 21 | 0.0 | 1.7 | 0.00 | 0.00 | 0.00 | 93 | |
| 20260903104738 | 62 | 21 | 0.0 | 1.7 | 0.00 | 0.00 | 0.00 | 93 | |
| 20260903104705 | 62 | 21 | 0.0 | 1.7 | 0.00 | 0.00 | 0.00 | 93 | |
| 20260903104305 | 62 | 21 | 0.0 | 1.7 | 0.00 | 0.00 | 0.00 | 94 | |
| 20260903103902 | 62 | 21 | 0.0 | 1.7 | 0.00 | 0.00 | 0.00 | 93 | |
| 20260903103502 | 62 | 21 | 0.0 | 1.7 | 0.00 | 0.00 | 0.00 | 91 | |
| 20260903103103 | 62 | 21 | 0.0 | 0.9 | 0.00 | 0.00 | 0.00 | 93 | |
| 20260903102659 | 62 | 21 | 0.0 | 0.0 | 0.00 | 0.00 | 0.00 | 93 | |
| 20260903102259 | 62 | 21 | 0.0 | 0.9 | 0.00 | 0.00 | 0.00 | 92 | |
| 20260903101857 | 62 | 21 | 0.0 | 0.9 | 0.00 | 0.00 | 0.00 | 91 | |
| 20260903101457 | 61 | 21 | 0.0 | 1.7 | 0.00 | 0.00 | 0.00 | 91 | |
| 20260903101057 | 61 | 21 | 0.0 | 1.7 | 0.00 | 0.00 | 0.00 | 93 | |
| 20260903100657 | 61 | 21 | 0.0 | 1.7 | 0.00 | 0.00 | 0.00 | 92 | |
| 20260903100257 | 61 | 21 | 0.0 | 0.9 | 0.00 | 0.00 | 0.00 | 91 | |
| 20260903095855 | 62 | 21 | 0.0 | 0.0 | 0.00 | 0.00 | 0.00 | 91 | |
| 20260903095458 | 62 | 21 | 0.0 | 1.7 | 0.00 | 0.00 | 0.00 | 90 | |
| 20260903095055 | 63 | 21 | 0.0 | 1.7 | 0.00 | 0.00 | 0.00 | 90 | |
| 20260903094655 | 64 | 21 | 0.9 | 2.6 | 0.00 | 0.00 | 0.00 | 89 | |
| 20260903094255 | 64 | 21 | 0.0 | 0.9 | 0.00 | 0.00 | 0.00 | 88 | |
| 20260903093853 | 64 | 21 | 0.0 | 1.7 | 0.00 | 0.00 | 0.00 | 90 | |
| 20260903093451 | 64 | 21 | 0.0 | 0.9 | 0.00 | 0.00 | 0.00 | 90 | |
| 20260903093050 | 64 | 21 | 0.9 | 2.6 | 0.00 | 0.00 | 0.00 | 90 | |
| 20260903092640 | 64 | 21 | 0.9 | 2.6 | 0.00 | 0.00 | 0.00 | 89 | |
| 20260903092312 | 64 | 21 | 0.0 | 0.9 | 0.00 | 0.00 | 0.00 | 91 | |
| 20260903092240 | 64 | 21 | 0.0 | 0.9 | 0.00 | 0.00 | 0.00 | 91 | |
| 20260903091837 | 64 | 21 | 0.9 | 2.6 | 0.00 | 0.00 | 0.00 | 91 | |
| 20260903091437 | 64 | 21 | 0.9 | 2.6 | 0.00 | 0.00 | 0.00 | 92 | |
| 20260903091240 | 63 | 21 | 0.0 | 0.9 | 0.00 | 0.00 | 0.00 | 91 | |
| 20260903091037 | 63 | 21 | 0.0 | 0.9 | 0.00 | 0.00 | 0.00 | 91 | |
| 20260903090637 | 63 | 21 | 0.9 | 1.7 | 0.00 | 0.00 | 0.00 | 93 | |
| 20260903090237 | 62 | 21 | 0.9 | 3.5 | 0.00 | 0.00 | 0.00 | 94 | |
| 20260903085835 | 62 | 21 | 0.9 | 1.7 | 0.00 | 0.00 | 0.00 | 93 | |
| 20260903085636 | 61 | 21 | 0.0 | 1.7 | 0.00 | 0.00 | 0.00 | 93 | |
| 20260903085435 | 61 | 21 | 0.0 | 1.7 | 0.00 | 0.00 | 0.00 | 93 | |
| 20260903085035 | 61 | 21 | 0.9 | 1.7 | 0.00 | 0.00 | 0.00 | 91 | |
| 20260903084633 | 61 | 21 | 0.9 | 1.7 | 0.00 | 0.00 | 0.00 | 91 | |
| 20260903084233 | 62 | 21 | 0.9 | 1.7 | 0.00 | 0.00 | 0.00 | 91 | |
| 20260903083830 | 63 | 21 | 0.0 | 1.7 | 0.00 | 0.00 | 0.00 | 90 | |
| 20260903083431 | 63 | 21 | 0.0 | 2.6 | 0.00 | 0.00 | 0.00 | 91 | |
| 20260903082631 | 63 | 21 | 0.0 | 1.7 | 0.00 | 0.00 | 0.00 | 92 | |
| 20260903082231 | 63 | 21 | 0.0 | 0.9 | 0.00 | 0.00 | 0.00 | 93 | |
| 20260903081829 | 63 | 21 | 0.9 | 2.6 | 0.00 | 0.00 | 0.00 | 93 | |
| 20260903081429 | 63 | 21 | 0.9 | 2.6 | 0.00 | 0.00 | 0.00 | 92 | |
| 20260903081029 | 63 | 21 | 0.9 | 1.7 | 0.00 | 0.00 | 0.00 | 92 | |
| 20260903080629 | 63 | 21 | 0.0 | 0.9 | 0.00 | 0.00 | 0.00 | 92 | |
| 20260903080229 | 63 | 21 | 0.0 | 1.7 | 0.00 | 0.00 | 0.00 | 91 | |
| 20260903075827 | 63 | 21 | 0.0 | 1.7 | 0.00 | 0.00 | 0.00 | 91 | |
| 20260903075424 | 63 | 21 | 0.0 | 0.9 | 0.00 | 0.00 | 0.00 | 90 | |
| 20260903075024 | 63 | 21 | 0.9 | 2.6 | 0.00 | 0.00 | 0.00 | 93 | |
| 20260903074624 | 62 | 21 | 0.0 | 1.7 | 0.00 | 0.00 | 0.00 | 91 | |
| 20260903074224 | 62 | 21 | 0.0 | 1.7 | 0.00 | 0.00 | 0.00 | 91 | |
| 20260903073822 | 62 | 21 | 0.0 | 0.9 | 0.00 | 0.00 | 0.00 | 91 | |
| 20260903073422 | 62 | 21 | 0.0 | 2.6 | 0.00 | 0.00 | 0.00 | 90 | |
| 20260903073022 | 61 | 21 | 0.0 | 1.7 | 0.00 | 0.00 | 0.00 | 92 | |
| 20260903072622 | 61 | 21 | 0.9 | 1.7 | 0.00 | 0.00 | 0.00 | 91 | |
| 20260903072222 | 61 | 21 | 0.0 | 0.9 | 0.00 | 0.00 | 0.00 | 91 | |
| 20260903071820 | 61 | 21 | 0.0 | 1.7 | 0.00 | 0.00 | 0.00 | 92 | |
| 20260903071449 | 61 | 21 | 0.0 | 1.7 | 0.00 | 0.00 | 0.00 | 90 | |
| 20260903071420 | 61 | 21 | 0.0 | 1.7 | 0.00 | 0.00 | 0.00 | 92 | |
| 20260903071020 | 61 | 21 | 0.0 | 1.7 | 0.00 | 0.00 | 0.00 | 90 | |
| 20260903070700 | 61 | 21 | 0.0 | 1.7 | 0.00 | 0.00 | 0.00 | 90 | |
| 20260903070618 | 61 | 21 | 0.0 | 1.7 | 0.00 | 0.00 | 0.00 | 90 | |
| 20260903070218 | 62 | 21 | 0.9 | 1.7 | 0.00 | 0.00 | 0.00 | 89 | |
| 20260903065806 | 62 | 21 | 0.9 | 2.6 | 0.00 | 0.00 | 0.00 | 88 | |
| 20260903065406 | 62 | 21 | 0.0 | 1.7 | 0.00 | 0.00 | 0.00 | 89 | |
| 20260903065006 | 62 | 21 | 0.0 | 1.7 | 0.00 | 0.00 | 0.00 | 89 | |
| 20260903064606 | 61 | 21 | 0.0 | 1.7 | 0.00 | 0.00 | 0.00 | 90 | |
| 20260903064206 | 61 | 21 | 0.0 | 0.9 | 0.00 | 0.00 | 0.00 | 90 | |
| 20260903063804 | 61 | 21 | 0.9 | 1.7 | 0.00 | 0.00 | 0.00 | 91 | |
| 20260903063404 | 61 | 21 | 0.0 | 0.9 | 0.00 | 0.00 | 0.00 | 91 | |
| 20260903063004 | 61 | 21 | 0.0 | 1.7 | 0.00 | 0.00 | 0.00 | 91 | |
| 20260903062604 | 61 | 21 | 0.0 | 0.0 | 0.00 | 0.00 | 0.00 | 91 | |
| 20260903062204 | 60 | 21 | 0.0 | 0.0 | 0.00 | 0.00 | 0.00 | 93 | |
| 20260903061802 | 59 | 21 | 0.0 | 0.0 | 0.00 | 0.00 | 0.00 | 93 | |
| 20260903061359 | 60 | 21 | 0.0 | 0.9 | 0.00 | 0.00 | 0.00 | 92 | |
| 20260903060959 | 60 | 21 | 0.0 | 0.9 | 0.00 | 0.00 | 0.00 | 91 | |
| 20260903060559 | 60 | 21 | 0.0 | 0.9 | 0.00 | 0.00 | 0.00 | 92 | |
| 20260903060159 | 59 | 21 | 0.0 | 0.9 | 0.00 | 0.00 | 0.00 | 94 | |
| 20260903055757 | 58 | 21 | 0.0 | 0.9 | 0.00 | 0.00 | 0.00 | 94 | |
| 20260903055357 | 58 | 21 | 0.0 | 0.9 | 0.00 | 0.00 | 0.00 | 94 | |
| 20260903054957 | 58 | 21 | 0.0 | 1.7 | 0.00 | 0.00 | 0.00 | 94 | |
| 20260903054557 | 58 | 21 | 0.0 | 0.0 | 0.00 | 0.00 | 0.00 | 94 | |
| 20260903054158 | 58 | 21 | 0.0 | 0.9 | 0.00 | 0.00 | 0.00 | 92 | |
| 20260903053755 | 58 | 21 | 0.0 | 1.7 | 0.00 | 0.00 | 0.00 | 91 | |
| 20260903053355 | 58 | 21 | 0.0 | 0.0 | 0.00 | 0.00 | 0.00 | 92 | |
| 20260903052955 | 58 | 21 | 0.0 | 0.0 | 0.00 | 0.00 | 0.00 | 93 | |
| 20260903052553 | 58 | 21 | 0.0 | 1.7 | 0.00 | 0.00 | 0.00 | 93 | |
| 20260903052153 | 57 | 21 | 0.0 | 0.0 | 0.00 | 0.00 | 0.00 | 93 | |
| 20260903051751 | 56 | 21 | 0.0 | 0.9 | 0.00 | 0.00 | 0.00 | 93 | |
| 20260903051351 | 56 | 21 | 0.0 | 0.9 | 0.00 | 0.00 | 0.00 | 94 | |
| 20260903050951 | 55 | 21 | 0.9 | 1.7 | 0.00 | 0.00 | 0.00 | 94 | |
| 20260903050551 | 55 | 21 | 0.0 | 0.9 | 0.00 | 0.00 | 0.00 | 94 | |
| 20260903050150 | 55 | 21 | 0.0 | 2.6 | 0.00 | 0.00 | 0.00 | 94 | |
| 20260903045748 | 55 | 21 | 0.9 | 1.7 | 0.00 | 0.00 | 0.00 | 94 | |
| 20260903045348 | 55 | 21 | 0.9 | 1.7 | 0.00 | 0.00 | 0.00 | 96 | |
| 20260903044547 | 54 | 21 | 0.0 | 1.7 | 0.00 | 0.00 | 0.00 | 99 | |
| 20260903043343 | 53 | 21 | 1.7 | 2.6 | 0.00 | 0.00 | 0.00 | 99 | |
| 20260903042943 | 53 | 21 | 1.7 | 3.5 | 0.00 | 0.00 | 0.00 | 99 | |
| 20260903042533 | 53 | 21 | 1.7 | 3.5 | 0.00 | 0.00 | 0.00 | 99 | |
| 20260903042133 | 53 | 21 | 1.7 | 3.5 | 0.00 | 0.00 | 0.00 | 99 | |
| 20260903041731 | 53 | 21 | 1.7 | 3.5 | 0.00 | 0.00 | 0.00 | 99 | |
| 20260903041331 | 53 | 21 | 2.6 | 3.5 | 0.00 | 0.00 | 0.00 | 99 | |
| 20260903040931 | 53 | 21 | 1.7 | 2.6 | 0.00 | 0.00 | 0.00 | 99 | |
| 20260903040531 | 53 | 21 | 1.7 | 3.5 | 0.00 | 0.00 | 0.00 | 99 | |
| 20260903040131 | 53 | 21 | 1.7 | 3.5 | 0.00 | 0.00 | 0.00 | 99 | |
| 20260903035728 | 53 | 21 | 1.7 | 3.5 | 0.00 | 0.00 | 0.00 | 99 | |
| 20260903035328 | 54 | 21 | 1.7 | 3.5 | 0.00 | 0.00 | 0.00 | 99 | |
| 20260903035151 | 54 | 21 | 0.9 | 2.6 | 0.00 | 0.00 | 0.00 | 99 | |
| 20260903034928 | 54 | 21 | 0.9 | 2.6 | 0.00 | 0.00 | 0.00 | 99 | |
| 20260903034526 | 54 | 21 | 0.0 | 1.7 | 0.00 | 0.00 | 0.00 | 99 | |
| 20260903034126 | 54 | 21 | 0.9 | 1.7 | 0.00 | 0.00 | 0.00 | 99 | |
| 20260903033724 | 55 | 21 | 1.7 | 3.5 | 0.00 | 0.00 | 0.00 | 99 | |
| 20260903033324 | 54 | 21 | 0.0 | 0.9 | 0.00 | 0.00 | 0.00 | 99 | |
| 20260903032924 | 54 | 21 | 0.0 | 1.7 | 0.00 | 0.00 | 0.00 | 99 |